sensor_id;sensor_type;location;lat;lon;timestamp;P1;durP1;ratioP1;P2;durP2;ratioP2
54430;SDS011;40342;52.998;5.862;2022-08-03T00:01:25;10.50;;;2.90;;
54430;SDS011;40342;52.998;5.862;2022-08-03T00:03:51;5.97;;;2.92;;
54430;SDS011;40342;52.998;5.862;2022-08-03T00:06:17;8.10;;;2.90;;
54430;SDS011;40342;52.998;5.862;2022-08-03T00:08:42;9.73;;;3.13;;
54430;SDS011;40342;52.998;5.862;2022-08-03T00:11:08;8.52;;;2.90;;
54430;SDS011;40342;52.998;5.862;2022-08-03T00:13:34;5.65;;;2.10;;
54430;SDS011;40342;52.998;5.862;2022-08-03T00:15:59;7.32;;;2.58;;
54430;SDS011;40342;52.998;5.862;2022-08-03T00:18:25;4.55;;;2.38;;
54430;SDS011;40342;52.998;5.862;2022-08-03T00:20:50;4.93;;;2.67;;
54430;SDS011;40342;52.998;5.862;2022-08-03T00:23:16;7.88;;;2.50;;
54430;SDS011;40342;52.998;5.862;2022-08-03T00:25:42;9.15;;;3.20;;
54430;SDS011;40342;52.998;5.862;2022-08-03T00:28:08;9.82;;;2.97;;
54430;SDS011;40342;52.998;5.862;2022-08-03T00:30:34;7.43;;;2.75;;
54430;SDS011;40342;52.998;5.862;2022-08-03T00:32:59;6.32;;;2.35;;
54430;SDS011;40342;52.998;5.862;2022-08-03T00:35:25;4.90;;;1.98;;
54430;SDS011;40342;52.998;5.862;2022-08-03T00:37:55;4.25;;;1.88;;
54430;SDS011;40342;52.998;5.862;2022-08-03T00:40:21;5.00;;;2.03;;
54430;SDS011;40342;52.998;5.862;2022-08-03T00:42:50;8.20;;;2.42;;
54430;SDS011;40342;52.998;5.862;2022-08-03T00:45:21;5.32;;;2.10;;
54430;SDS011;40342;52.998;5.862;2022-08-03T00:47:48;7.50;;;2.50;;
54430;SDS011;40342;52.998;5.862;2022-08-03T00:50:15;5.72;;;2.83;;
54430;SDS011;40342;52.998;5.862;2022-08-03T00:52:41;7.32;;;2.63;;
54430;SDS011;40342;52.998;5.862;2022-08-03T00:55:08;8.43;;;2.75;;
54430;SDS011;40342;52.998;5.862;2022-08-03T00:57:34;12.57;;;3.10;;
54430;SDS011;40342;52.998;5.862;2022-08-03T01:00:01;8.32;;;3.22;;
54430;SDS011;40342;52.998;5.862;2022-08-03T01:02:27;4.85;;;2.40;;
54430;SDS011;40342;52.998;5.862;2022-08-03T01:04:53;11.05;;;2.63;;
54430;SDS011;40342;52.998;5.862;2022-08-03T01:16:17;5.93;;;2.30;;
54430;SDS011;40342;52.998;5.862;2022-08-03T01:21:25;7.45;;;2.35;;
54430;SDS011;40342;52.998;5.862;2022-08-03T01:23:58;3.58;;;1.90;;
54430;SDS011;40342;52.998;5.862;2022-08-03T01:32:20;7.07;;;2.22;;
54430;SDS011;40342;52.998;5.862;2022-08-03T01:34:51;6.80;;;2.13;;
54430;SDS011;40342;52.998;5.862;2022-08-03T01:37:26;10.32;;;2.75;;
54430;SDS011;40342;52.998;5.862;2022-08-03T01:39:56;9.25;;;2.22;;
54430;SDS011;40342;52.998;5.862;2022-08-03T01:42:25;7.47;;;2.35;;
54430;SDS011;40342;52.998;5.862;2022-08-03T01:44:52;8.13;;;2.05;;
54430;SDS011;40342;52.998;5.862;2022-08-03T01:47:21;7.45;;;1.85;;
54430;SDS011;40342;52.998;5.862;2022-08-03T01:49:48;10.57;;;2.40;;
54430;SDS011;40342;52.998;5.862;2022-08-03T01:52:18;3.60;;;1.70;;
54430;SDS011;40342;52.998;5.862;2022-08-03T01:54:45;6.20;;;1.88;;
54430;SDS011;40342;52.998;5.862;2022-08-03T01:57:13;8.50;;;2.00;;
54430;SDS011;40342;52.998;5.862;2022-08-03T01:59:40;5.50;;;1.90;;
54430;SDS011;40342;52.998;5.862;2022-08-03T02:02:07;5.30;;;2.15;;
54430;SDS011;40342;52.998;5.862;2022-08-03T02:04:35;5.97;;;1.83;;
54430;SDS011;40342;52.998;5.862;2022-08-03T02:07:03;8.63;;;2.53;;
54430;SDS011;40342;52.998;5.862;2022-08-03T02:09:30;5.25;;;1.83;;
54430;SDS011;40342;52.998;5.862;2022-08-03T02:11:56;8.80;;;2.15;;
54430;SDS011;40342;52.998;5.862;2022-08-03T02:14:23;11.27;;;2.20;;
54430;SDS011;40342;52.998;5.862;2022-08-03T02:16:50;7.82;;;1.83;;
54430;SDS011;40342;52.998;5.862;2022-08-03T02:19:16;5.35;;;1.92;;
54430;SDS011;40342;52.998;5.862;2022-08-03T02:21:43;8.40;;;2.65;;
54430;SDS011;40342;52.998;5.862;2022-08-03T02:24:10;7.80;;;2.10;;
54430;SDS011;40342;52.998;5.862;2022-08-03T02:26:37;5.50;;;2.45;;
54430;SDS011;40342;52.998;5.862;2022-08-03T02:29:06;11.63;;;2.40;;
54430;SDS011;40342;52.998;5.862;2022-08-03T02:31:42;14.20;;;2.38;;
54430;SDS011;40342;52.998;5.862;2022-08-03T02:34:11;6.63;;;2.45;;
54430;SDS011;40342;52.998;5.862;2022-08-03T02:36:38;13.32;;;2.25;;
54430;SDS011;40342;52.998;5.862;2022-08-03T02:39:09;10.32;;;2.50;;
54430;SDS011;40342;52.998;5.862;2022-08-03T02:41:41;10.10;;;1.90;;
54430;SDS011;40342;52.998;5.862;2022-08-03T02:44:11;6.88;;;2.53;;
54430;SDS011;40342;52.998;5.862;2022-08-03T02:46:38;7.90;;;2.03;;
54430;SDS011;40342;52.998;5.862;2022-08-03T02:49:08;6.30;;;1.80;;
54430;SDS011;40342;52.998;5.862;2022-08-03T02:51:35;9.98;;;3.30;;
54430;SDS011;40342;52.998;5.862;2022-08-03T02:54:04;9.73;;;2.63;;
54430;SDS011;40342;52.998;5.862;2022-08-03T02:56:32;9.88;;;2.50;;
54430;SDS011;40342;52.998;5.862;2022-08-03T02:58:59;4.63;;;1.98;;
54430;SDS011;40342;52.998;5.862;2022-08-03T03:01:26;11.00;;;2.40;;
54430;SDS011;40342;52.998;5.862;2022-08-03T03:03:52;8.18;;;2.25;;
54430;SDS011;40342;52.998;5.862;2022-08-03T03:06:20;10.57;;;2.70;;
54430;SDS011;40342;52.998;5.862;2022-08-03T03:08:46;11.35;;;2.30;;
54430;SDS011;40342;52.998;5.862;2022-08-03T03:11:13;9.10;;;2.30;;
54430;SDS011;40342;52.998;5.862;2022-08-03T03:13:42;7.72;;;2.20;;
54430;SDS011;40342;52.998;5.862;2022-08-03T03:16:09;10.98;;;2.20;;
54430;SDS011;40342;52.998;5.862;2022-08-03T03:18:37;7.90;;;1.98;;
54430;SDS011;40342;52.998;5.862;2022-08-03T03:21:04;9.07;;;2.45;;
54430;SDS011;40342;52.998;5.862;2022-08-03T03:23:32;8.02;;;2.83;;
54430;SDS011;40342;52.998;5.862;2022-08-03T03:26:01;6.10;;;2.60;;
54430;SDS011;40342;52.998;5.862;2022-08-03T03:28:27;12.75;;;2.60;;
54430;SDS011;40342;52.998;5.862;2022-08-03T03:30:54;10.05;;;2.67;;
54430;SDS011;40342;52.998;5.862;2022-08-03T03:33:20;12.43;;;3.08;;
54430;SDS011;40342;52.998;5.862;2022-08-03T03:35:46;7.03;;;2.13;;
54430;SDS011;40342;52.998;5.862;2022-08-03T03:38:13;12.10;;;2.65;;
54430;SDS011;40342;52.998;5.862;2022-08-03T03:40:38;10.55;;;2.30;;
54430;SDS011;40342;52.998;5.862;2022-08-03T03:43:08;10.05;;;2.53;;
54430;SDS011;40342;52.998;5.862;2022-08-03T03:45:35;11.48;;;2.45;;
54430;SDS011;40342;52.998;5.862;2022-08-03T03:48:02;9.10;;;2.25;;
54430;SDS011;40342;52.998;5.862;2022-08-03T03:50:29;7.82;;;2.10;;
54430;SDS011;40342;52.998;5.862;2022-08-03T03:52:56;7.90;;;2.28;;
54430;SDS011;40342;52.998;5.862;2022-08-03T03:55:22;9.88;;;2.55;;
54430;SDS011;40342;52.998;5.862;2022-08-03T03:57:48;8.32;;;2.60;;
54430;SDS011;40342;52.998;5.862;2022-08-03T04:00:14;7.63;;;2.22;;
54430;SDS011;40342;52.998;5.862;2022-08-03T04:02:40;9.10;;;2.42;;
54430;SDS011;40342;52.998;5.862;2022-08-03T04:05:06;9.85;;;2.50;;
54430;SDS011;40342;52.998;5.862;2022-08-03T04:07:55;8.70;;;2.55;;
54430;SDS011;40342;52.998;5.862;2022-08-03T04:10:42;7.32;;;2.42;;
54430;SDS011;40342;52.998;5.862;2022-08-03T04:13:26;9.93;;;2.78;;
54430;SDS011;40342;52.998;5.862;2022-08-03T04:15:58;12.77;;;2.83;;
54430;SDS011;40342;52.998;5.862;2022-08-03T04:18:24;10.63;;;2.70;;
54430;SDS011;40342;52.998;5.862;2022-08-03T04:20:52;8.82;;;2.20;;
54430;SDS011;40342;52.998;5.862;2022-08-03T04:23:20;10.13;;;2.50;;
54430;SDS011;40342;52.998;5.862;2022-08-03T04:25:48;10.32;;;2.90;;
54430;SDS011;40342;52.998;5.862;2022-08-03T04:28:17;9.50;;;2.92;;
54430;SDS011;40342;52.998;5.862;2022-08-03T04:30:44;12.05;;;2.65;;
54430;SDS011;40342;52.998;5.862;2022-08-03T04:33:15;9.35;;;2.80;;
54430;SDS011;40342;52.998;5.862;2022-08-03T04:35:41;8.18;;;2.53;;
54430;SDS011;40342;52.998;5.862;2022-08-03T04:38:09;9.95;;;2.90;;
54430;SDS011;40342;52.998;5.862;2022-08-03T04:40:38;8.10;;;2.78;;
54430;SDS011;40342;52.998;5.862;2022-08-03T04:43:07;12.57;;;2.42;;
54430;SDS011;40342;52.998;5.862;2022-08-03T04:45:34;11.15;;;2.67;;
54430;SDS011;40342;52.998;5.862;2022-08-03T04:48:00;10.52;;;2.85;;
54430;SDS011;40342;52.998;5.862;2022-08-03T04:50:26;6.78;;;3.15;;
54430;SDS011;40342;52.998;5.862;2022-08-03T04:52:52;11.57;;;2.70;;
54430;SDS011;40342;52.998;5.862;2022-08-03T04:55:26;7.72;;;2.70;;
54430;SDS011;40342;52.998;5.862;2022-08-03T04:57:53;11.60;;;3.10;;
54430;SDS011;40342;52.998;5.862;2022-08-03T05:00:19;10.35;;;2.35;;
54430;SDS011;40342;52.998;5.862;2022-08-03T05:02:45;8.77;;;2.83;;
54430;SDS011;40342;52.998;5.862;2022-08-03T05:05:10;10.27;;;2.80;;
54430;SDS011;40342;52.998;5.862;2022-08-03T05:07:36;11.60;;;2.83;;
54430;SDS011;40342;52.998;5.862;2022-08-03T05:10:05;9.98;;;2.58;;
54430;SDS011;40342;52.998;5.862;2022-08-03T05:12:32;13.82;;;3.38;;
54430;SDS011;40342;52.998;5.862;2022-08-03T05:14:59;10.80;;;2.60;;
54430;SDS011;40342;52.998;5.862;2022-08-03T05:17:25;14.65;;;2.88;;
54430;SDS011;40342;52.998;5.862;2022-08-03T05:19:51;10.90;;;3.08;;
54430;SDS011;40342;52.998;5.862;2022-08-03T05:22:16;7.65;;;2.63;;
54430;SDS011;40342;52.998;5.862;2022-08-03T05:24:42;7.63;;;2.97;;
54430;SDS011;40342;52.998;5.862;2022-08-03T05:27:07;11.38;;;2.88;;
54430;SDS011;40342;52.998;5.862;2022-08-03T05:29:33;8.35;;;2.72;;
54430;SDS011;40342;52.998;5.862;2022-08-03T05:31:59;10.00;;;2.88;;
54430;SDS011;40342;52.998;5.862;2022-08-03T05:34:26;9.32;;;2.72;;
54430;SDS011;40342;52.998;5.862;2022-08-03T05:36:51;12.85;;;3.03;;
54430;SDS011;40342;52.998;5.862;2022-08-03T05:39:17;10.88;;;2.85;;
54430;SDS011;40342;52.998;5.862;2022-08-03T05:41:42;9.88;;;3.05;;
54430;SDS011;40342;52.998;5.862;2022-08-03T05:44:08;12.00;;;3.47;;
54430;SDS011;40342;52.998;5.862;2022-08-03T05:46:33;9.95;;;3.13;;
54430;SDS011;40342;52.998;5.862;2022-08-03T05:48:59;15.07;;;3.22;;
54430;SDS011;40342;52.998;5.862;2022-08-03T05:51:25;9.10;;;2.78;;
54430;SDS011;40342;52.998;5.862;2022-08-03T05:53:51;11.65;;;3.40;;
54430;SDS011;40342;52.998;5.862;2022-08-03T05:56:20;9.13;;;3.00;;
54430;SDS011;40342;52.998;5.862;2022-08-03T05:58:47;11.30;;;3.30;;
54430;SDS011;40342;52.998;5.862;2022-08-03T06:01:13;8.05;;;3.28;;
54430;SDS011;40342;52.998;5.862;2022-08-03T06:03:40;9.85;;;3.25;;
54430;SDS011;40342;52.998;5.862;2022-08-03T06:06:05;14.85;;;3.20;;
54430;SDS011;40342;52.998;5.862;2022-08-03T06:08:31;9.77;;;3.45;;
54430;SDS011;40342;52.998;5.862;2022-08-03T06:10:57;13.25;;;3.80;;
54430;SDS011;40342;52.998;5.862;2022-08-03T06:13:23;12.70;;;3.35;;
54430;SDS011;40342;52.998;5.862;2022-08-03T06:15:49;9.45;;;3.00;;
54430;SDS011;40342;52.998;5.862;2022-08-03T06:18:14;12.60;;;3.85;;
54430;SDS011;40342;52.998;5.862;2022-08-03T06:20:40;10.43;;;4.43;;
54430;SDS011;40342;52.998;5.862;2022-08-03T06:23:05;12.02;;;3.50;;
54430;SDS011;40342;52.998;5.862;2022-08-03T06:25:31;11.10;;;3.95;;
54430;SDS011;40342;52.998;5.862;2022-08-03T06:27:57;18.98;;;3.65;;
54430;SDS011;40342;52.998;5.862;2022-08-03T06:30:23;14.05;;;4.28;;
54430;SDS011;40342;52.998;5.862;2022-08-03T06:32:49;19.20;;;4.57;;
54430;SDS011;40342;52.998;5.862;2022-08-03T06:35:15;14.02;;;3.70;;
54430;SDS011;40342;52.998;5.862;2022-08-03T06:37:41;19.45;;;4.47;;
54430;SDS011;40342;52.998;5.862;2022-08-03T06:40:09;15.20;;;4.45;;
54430;SDS011;40342;52.998;5.862;2022-08-03T06:42:39;16.45;;;4.95;;
54430;SDS011;40342;52.998;5.862;2022-08-03T06:45:05;19.75;;;4.82;;
54430;SDS011;40342;52.998;5.862;2022-08-03T06:47:32;15.07;;;4.80;;
54430;SDS011;40342;52.998;5.862;2022-08-03T06:49:58;18.20;;;5.80;;
54430;SDS011;40342;52.998;5.862;2022-08-03T06:52:24;13.68;;;5.60;;
54430;SDS011;40342;52.998;5.862;2022-08-03T06:54:50;20.83;;;6.28;;
54430;SDS011;40342;52.998;5.862;2022-08-03T06:57:15;17.73;;;5.55;;
54430;SDS011;40342;52.998;5.862;2022-08-03T06:59:42;22.13;;;5.80;;
54430;SDS011;40342;52.998;5.862;2022-08-03T07:02:08;15.98;;;5.75;;
54430;SDS011;40342;52.998;5.862;2022-08-03T07:04:34;14.52;;;5.75;;
54430;SDS011;40342;52.998;5.862;2022-08-03T07:07:00;22.15;;;6.28;;
54430;SDS011;40342;52.998;5.862;2022-08-03T07:09:26;16.10;;;5.28;;
54430;SDS011;40342;52.998;5.862;2022-08-03T07:11:52;19.63;;;5.95;;
54430;SDS011;40342;52.998;5.862;2022-08-03T07:14:18;17.25;;;6.57;;
54430;SDS011;40342;52.998;5.862;2022-08-03T07:16:44;24.10;;;6.88;;
54430;SDS011;40342;52.998;5.862;2022-08-03T07:19:09;22.27;;;7.05;;
54430;SDS011;40342;52.998;5.862;2022-08-03T07:21:36;20.25;;;7.65;;
54430;SDS011;40342;52.998;5.862;2022-08-03T07:24:01;18.90;;;7.25;;
54430;SDS011;40342;52.998;5.862;2022-08-03T07:26:28;21.60;;;7.55;;
54430;SDS011;40342;52.998;5.862;2022-08-03T07:28:53;20.05;;;6.95;;
54430;SDS011;40342;52.998;5.862;2022-08-03T07:31:19;20.92;;;7.43;;
54430;SDS011;40342;52.998;5.862;2022-08-03T07:33:44;16.33;;;7.38;;
54430;SDS011;40342;52.998;5.862;2022-08-03T07:36:10;24.05;;;8.02;;
54430;SDS011;40342;52.998;5.862;2022-08-03T07:38:35;18.60;;;7.88;;
54430;SDS011;40342;52.998;5.862;2022-08-03T07:41:01;22.17;;;8.15;;
54430;SDS011;40342;52.998;5.862;2022-08-03T07:43:27;26.23;;;7.88;;
54430;SDS011;40342;52.998;5.862;2022-08-03T07:45:53;19.50;;;8.02;;
54430;SDS011;40342;52.998;5.862;2022-08-03T07:48:19;24.98;;;8.85;;
54430;SDS011;40342;52.998;5.862;2022-08-03T07:50:45;23.73;;;8.73;;
54430;SDS011;40342;52.998;5.862;2022-08-03T07:53:13;24.60;;;9.05;;
54430;SDS011;40342;52.998;5.862;2022-08-03T07:55:39;19.75;;;8.52;;
54430;SDS011;40342;52.998;5.862;2022-08-03T07:58:08;20.33;;;8.25;;
54430;SDS011;40342;52.998;5.862;2022-08-03T08:00:41;25.80;;;9.50;;
54430;SDS011;40342;52.998;5.862;2022-08-03T08:03:08;19.80;;;8.68;;
54430;SDS011;40342;52.998;5.862;2022-08-03T08:05:34;25.02;;;9.80;;
54430;SDS011;40342;52.998;5.862;2022-08-03T08:08:00;16.48;;;9.32;;
54430;SDS011;40342;52.998;5.862;2022-08-03T08:10:26;18.23;;;9.52;;
54430;SDS011;40342;52.998;5.862;2022-08-03T08:12:52;18.80;;;9.80;;
54430;SDS011;40342;52.998;5.862;2022-08-03T08:15:18;17.73;;;9.50;;
54430;SDS011;40342;52.998;5.862;2022-08-03T08:17:45;22.55;;;10.15;;
54430;SDS011;40342;52.998;5.862;2022-08-03T08:20:26;20.33;;;9.85;;
54430;SDS011;40342;52.998;5.862;2022-08-03T08:22:57;23.35;;;10.57;;
54430;SDS011;40342;52.998;5.862;2022-08-03T08:25:28;23.60;;;10.43;;
54430;SDS011;40342;52.998;5.862;2022-08-03T08:27:54;25.85;;;10.30;;
54430;SDS011;40342;52.998;5.862;2022-08-03T08:30:21;25.17;;;10.38;;
54430;SDS011;40342;52.998;5.862;2022-08-03T08:32:47;20.65;;;10.43;;
54430;SDS011;40342;52.998;5.862;2022-08-03T08:35:14;19.45;;;9.75;;
54430;SDS011;40342;52.998;5.862;2022-08-03T08:37:40;17.77;;;9.73;;
54430;SDS011;40342;52.998;5.862;2022-08-03T08:40:07;20.25;;;10.52;;
54430;SDS011;40342;52.998;5.862;2022-08-03T08:42:35;17.23;;;10.20;;
54430;SDS011;40342;52.998;5.862;2022-08-03T08:45:02;20.30;;;10.40;;
54430;SDS011;40342;52.998;5.862;2022-08-03T08:47:30;15.52;;;10.00;;
54430;SDS011;40342;52.998;5.862;2022-08-03T08:49:57;23.85;;;10.13;;
54430;SDS011;40342;52.998;5.862;2022-08-03T08:52:24;17.30;;;9.68;;
54430;SDS011;40342;52.998;5.862;2022-08-03T08:54:55;23.35;;;9.70;;
54430;SDS011;40342;52.998;5.862;2022-08-03T08:57:29;21.13;;;10.38;;
54430;SDS011;40342;52.998;5.862;2022-08-03T09:00:02;23.80;;;10.32;;
54430;SDS011;40342;52.998;5.862;2022-08-03T09:02:33;20.55;;;9.45;;
54430;SDS011;40342;52.998;5.862;2022-08-03T09:04:59;21.17;;;9.95;;
54430;SDS011;40342;52.998;5.862;2022-08-03T09:07:26;19.27;;;9.77;;
54430;SDS011;40342;52.998;5.862;2022-08-03T09:09:52;20.50;;;10.13;;
54430;SDS011;40342;52.998;5.862;2022-08-03T09:12:18;22.10;;;10.23;;
54430;SDS011;40342;52.998;5.862;2022-08-03T09:14:43;19.45;;;9.45;;
54430;SDS011;40342;52.998;5.862;2022-08-03T09:17:10;18.10;;;9.75;;
54430;SDS011;40342;52.998;5.862;2022-08-03T09:19:35;18.40;;;9.95;;
54430;SDS011;40342;52.998;5.862;2022-08-03T09:24:34;21.38;;;9.35;;
54430;SDS011;40342;52.998;5.862;2022-08-03T09:27:01;26.90;;;10.32;;
54430;SDS011;40342;52.998;5.862;2022-08-03T09:29:30;18.15;;;10.55;;
54430;SDS011;40342;52.998;5.862;2022-08-03T09:32:01;19.90;;;10.70;;
54430;SDS011;40342;52.998;5.862;2022-08-03T09:34:27;21.80;;;10.35;;
54430;SDS011;40342;52.998;5.862;2022-08-03T09:36:53;23.77;;;10.02;;
54430;SDS011;40342;52.998;5.862;2022-08-03T09:39:26;19.23;;;9.98;;
54430;SDS011;40342;52.998;5.862;2022-08-03T09:44:33;16.20;;;9.82;;
54430;SDS011;40342;52.998;5.862;2022-08-03T09:47:00;26.67;;;11.52;;
54430;SDS011;40342;52.998;5.862;2022-08-03T09:49:26;17.52;;;9.68;;
54430;SDS011;40342;52.998;5.862;2022-08-03T09:51:52;28.08;;;9.48;;
54430;SDS011;40342;52.998;5.862;2022-08-03T09:54:27;15.00;;;8.98;;
54430;SDS011;40342;52.998;5.862;2022-08-03T09:56:54;23.48;;;9.77;;
54430;SDS011;40342;52.998;5.862;2022-08-03T09:59:29;25.25;;;9.05;;
54430;SDS011;40342;52.998;5.862;2022-08-03T10:01:56;21.33;;;9.10;;
54430;SDS011;40342;52.998;5.862;2022-08-03T10:04:23;28.13;;;9.48;;
54430;SDS011;40342;52.998;5.862;2022-08-03T10:07:08;23.55;;;9.13;;
54430;SDS011;40342;52.998;5.862;2022-08-03T10:09:35;28.05;;;8.57;;
54430;SDS011;40342;52.998;5.862;2022-08-03T10:12:11;24.83;;;7.88;;
54430;SDS011;40342;52.998;5.862;2022-08-03T10:14:38;21.02;;;7.47;;
54430;SDS011;40342;52.998;5.862;2022-08-03T10:17:09;19.60;;;7.80;;
54430;SDS011;40342;52.998;5.862;2022-08-03T10:19:35;23.17;;;7.18;;
54430;SDS011;40342;52.998;5.862;2022-08-03T10:22:02;17.95;;;7.35;;
54430;SDS011;40342;52.998;5.862;2022-08-03T10:24:33;27.58;;;7.10;;
54430;SDS011;40342;52.998;5.862;2022-08-03T10:27:04;18.92;;;6.65;;
54430;SDS011;40342;52.998;5.862;2022-08-03T10:29:33;18.15;;;6.45;;
54430;SDS011;40342;52.998;5.862;2022-08-03T10:32:03;21.77;;;7.28;;
54430;SDS011;40342;52.998;5.862;2022-08-03T10:34:35;18.73;;;7.53;;
54430;SDS011;40342;52.998;5.862;2022-08-03T10:37:07;22.17;;;7.82;;
54430;SDS011;40342;52.998;5.862;2022-08-03T10:39:35;23.08;;;7.13;;
54430;SDS011;40342;52.998;5.862;2022-08-03T10:42:01;24.15;;;7.22;;
54430;SDS011;40342;52.998;5.862;2022-08-03T10:44:36;24.42;;;7.97;;
54430;SDS011;40342;52.998;5.862;2022-08-03T10:47:04;19.95;;;6.57;;
54430;SDS011;40342;52.998;5.862;2022-08-03T10:49:30;26.25;;;6.22;;
54430;SDS011;40342;52.998;5.862;2022-08-03T10:51:56;18.88;;;5.88;;
54430;SDS011;40342;52.998;5.862;2022-08-03T10:54:41;20.77;;;6.50;;
54430;SDS011;40342;52.998;5.862;2022-08-03T11:00:20;18.80;;;6.72;;
54430;SDS011;40342;52.998;5.862;2022-08-03T11:03:00;27.15;;;7.47;;
54430;SDS011;40342;52.998;5.862;2022-08-03T11:05:27;24.38;;;6.32;;
54430;SDS011;40342;52.998;5.862;2022-08-03T11:10:51;24.63;;;5.70;;
54430;SDS011;40342;52.998;5.862;2022-08-03T11:13:19;30.83;;;5.68;;
54430;SDS011;40342;52.998;5.862;2022-08-03T11:15:47;26.85;;;6.63;;
54430;SDS011;40342;52.998;5.862;2022-08-03T11:18:14;24.63;;;5.45;;
54430;SDS011;40342;52.998;5.862;2022-08-03T11:20:47;27.58;;;5.57;;
54430;SDS011;40342;52.998;5.862;2022-08-03T11:23:15;22.08;;;5.32;;
54430;SDS011;40342;52.998;5.862;2022-08-03T11:28:36;33.85;;;6.55;;
54430;SDS011;40342;52.998;5.862;2022-08-03T11:34:08;22.40;;;5.65;;
54430;SDS011;40342;52.998;5.862;2022-08-03T11:39:44;18.50;;;5.30;;
54430;SDS011;40342;52.998;5.862;2022-08-03T11:44:50;24.30;;;5.53;;
54430;SDS011;40342;52.998;5.862;2022-08-03T11:47:21;19.55;;;6.20;;
54430;SDS011;40342;52.998;5.862;2022-08-03T11:49:49;20.33;;;5.45;;
54430;SDS011;40342;52.998;5.862;2022-08-03T11:52:17;22.10;;;5.45;;
54430;SDS011;40342;52.998;5.862;2022-08-03T11:54:43;13.85;;;4.28;;
54430;SDS011;40342;52.998;5.862;2022-08-03T11:57:10;19.45;;;6.05;;
54430;SDS011;40342;52.998;5.862;2022-08-03T11:59:36;17.92;;;6.03;;
54430;SDS011;40342;52.998;5.862;2022-08-03T12:02:09;28.33;;;6.00;;
54430;SDS011;40342;52.998;5.862;2022-08-03T12:04:49;19.83;;;5.70;;
54430;SDS011;40342;52.998;5.862;2022-08-03T12:07:15;19.30;;;5.22;;
54430;SDS011;40342;52.998;5.862;2022-08-03T12:09:42;25.67;;;5.78;;
54430;SDS011;40342;52.998;5.862;2022-08-03T12:12:08;20.85;;;5.35;;
54430;SDS011;40342;52.998;5.862;2022-08-03T12:14:33;19.67;;;5.70;;
54430;SDS011;40342;52.998;5.862;2022-08-03T12:16:59;24.83;;;5.60;;
54430;SDS011;40342;52.998;5.862;2022-08-03T12:19:25;20.45;;;5.72;;
54430;SDS011;40342;52.998;5.862;2022-08-03T12:21:50;21.50;;;5.25;;
54430;SDS011;40342;52.998;5.862;2022-08-03T12:24:16;26.00;;;6.18;;
54430;SDS011;40342;52.998;5.862;2022-08-03T12:26:45;17.55;;;5.65;;
54430;SDS011;40342;52.998;5.862;2022-08-03T12:29:16;26.40;;;5.57;;
54430;SDS011;40342;52.998;5.862;2022-08-03T12:31:42;21.15;;;6.10;;
54430;SDS011;40342;52.998;5.862;2022-08-03T12:34:08;18.02;;;5.97;;
54430;SDS011;40342;52.998;5.862;2022-08-03T12:36:34;20.98;;;5.93;;
54430;SDS011;40342;52.998;5.862;2022-08-03T12:39:02;20.15;;;6.05;;
54430;SDS011;40342;52.998;5.862;2022-08-03T12:41:33;22.80;;;5.88;;
54430;SDS011;40342;52.998;5.862;2022-08-03T12:44:03;18.23;;;5.40;;
54430;SDS011;40342;52.998;5.862;2022-08-03T12:46:34;21.55;;;5.32;;
54430;SDS011;40342;52.998;5.862;2022-08-03T12:49:02;23.33;;;5.80;;
54430;SDS011;40342;52.998;5.862;2022-08-03T12:54:07;19.17;;;5.80;;
54430;SDS011;40342;52.998;5.862;2022-08-03T12:56:34;20.88;;;5.63;;
54430;SDS011;40342;52.998;5.862;2022-08-03T12:59:23;24.90;;;6.30;;
54430;SDS011;40342;52.998;5.862;2022-08-03T13:01:50;21.10;;;5.63;;
54430;SDS011;40342;52.998;5.862;2022-08-03T13:04:26;19.15;;;4.80;;
54430;SDS011;40342;52.998;5.862;2022-08-03T13:07:04;20.35;;;5.60;;
54430;SDS011;40342;52.998;5.862;2022-08-03T13:14:38;14.65;;;5.22;;
54430;SDS011;40342;52.998;5.862;2022-08-03T13:17:05;21.08;;;5.32;;
54430;SDS011;40342;52.998;5.862;2022-08-03T13:19:32;17.10;;;5.28;;
54430;SDS011;40342;52.998;5.862;2022-08-03T13:21:58;20.30;;;5.47;;
54430;SDS011;40342;52.998;5.862;2022-08-03T13:24:25;16.52;;;4.85;;
54430;SDS011;40342;52.998;5.862;2022-08-03T13:26:51;18.42;;;5.20;;
54430;SDS011;40342;52.998;5.862;2022-08-03T13:29:16;18.33;;;4.78;;
54430;SDS011;40342;52.998;5.862;2022-08-03T13:31:42;15.98;;;5.55;;
54430;SDS011;40342;52.998;5.862;2022-08-03T13:34:08;15.75;;;5.13;;
54430;SDS011;40342;52.998;5.862;2022-08-03T13:36:33;17.15;;;5.15;;
54430;SDS011;40342;52.998;5.862;2022-08-03T13:38:59;16.42;;;6.25;;
54430;SDS011;40342;52.998;5.862;2022-08-03T13:41:25;23.20;;;5.35;;
54430;SDS011;40342;52.998;5.862;2022-08-03T13:43:50;25.55;;;5.82;;
54430;SDS011;40342;52.998;5.862;2022-08-03T13:46:16;15.48;;;5.20;;
54430;SDS011;40342;52.998;5.862;2022-08-03T13:48:41;26.92;;;5.15;;
54430;SDS011;40342;52.998;5.862;2022-08-03T13:51:07;19.10;;;4.97;;
54430;SDS011;40342;52.998;5.862;2022-08-03T13:53:32;16.33;;;5.22;;
54430;SDS011;40342;52.998;5.862;2022-08-03T13:55:58;15.07;;;4.38;;
54430;SDS011;40342;52.998;5.862;2022-08-03T13:58:23;16.75;;;4.90;;
54430;SDS011;40342;52.998;5.862;2022-08-03T14:00:49;18.73;;;4.97;;
54430;SDS011;40342;52.998;5.862;2022-08-03T14:03:15;14.73;;;4.30;;
54430;SDS011;40342;52.998;5.862;2022-08-03T14:05:43;20.75;;;4.97;;
54430;SDS011;40342;52.998;5.862;2022-08-03T14:08:09;13.52;;;4.57;;
54430;SDS011;40342;52.998;5.862;2022-08-03T14:10:36;22.95;;;4.82;;
54430;SDS011;40342;52.998;5.862;2022-08-03T14:13:05;15.35;;;4.75;;
54430;SDS011;40342;52.998;5.862;2022-08-03T14:15:31;18.33;;;4.68;;
54430;SDS011;40342;52.998;5.862;2022-08-03T14:17:57;14.88;;;5.00;;
54430;SDS011;40342;52.998;5.862;2022-08-03T14:20:23;14.63;;;4.47;;
54430;SDS011;40342;52.998;5.862;2022-08-03T14:22:48;15.82;;;4.88;;
54430;SDS011;40342;52.998;5.862;2022-08-03T14:25:14;15.55;;;4.88;;
54430;SDS011;40342;52.998;5.862;2022-08-03T14:27:39;19.90;;;4.47;;
54430;SDS011;40342;52.998;5.862;2022-08-03T14:30:05;18.10;;;4.50;;
54430;SDS011;40342;52.998;5.862;2022-08-03T14:32:31;23.20;;;5.47;;
54430;SDS011;40342;52.998;5.862;2022-08-03T14:34:56;21.08;;;5.20;;
54430;SDS011;40342;52.998;5.862;2022-08-03T14:37:22;18.85;;;4.82;;
54430;SDS011;40342;52.998;5.862;2022-08-03T14:39:48;16.48;;;4.70;;
54430;SDS011;40342;52.998;5.862;2022-08-03T14:42:13;16.63;;;4.25;;
54430;SDS011;40342;52.998;5.862;2022-08-03T14:44:39;15.35;;;4.03;;
54430;SDS011;40342;52.998;5.862;2022-08-03T14:47:05;17.40;;;3.70;;
54430;SDS011;40342;52.998;5.862;2022-08-03T14:49:31;15.73;;;3.65;;
54430;SDS011;40342;52.998;5.862;2022-08-03T14:51:56;12.93;;;3.90;;
54430;SDS011;40342;52.998;5.862;2022-08-03T14:54:22;14.32;;;3.95;;
54430;SDS011;40342;52.998;5.862;2022-08-03T14:56:47;16.73;;;4.20;;
54430;SDS011;40342;52.998;5.862;2022-08-03T14:59:14;15.23;;;4.30;;
54430;SDS011;40342;52.998;5.862;2022-08-03T15:01:39;14.75;;;4.00;;
54430;SDS011;40342;52.998;5.862;2022-08-03T15:04:05;14.85;;;4.20;;
54430;SDS011;40342;52.998;5.862;2022-08-03T15:06:30;17.98;;;3.65;;
54430;SDS011;40342;52.998;5.862;2022-08-03T15:08:56;13.63;;;3.45;;
54430;SDS011;40342;52.998;5.862;2022-08-03T15:11:21;15.32;;;3.60;;
54430;SDS011;40342;52.998;5.862;2022-08-03T15:13:47;19.58;;;3.50;;
54430;SDS011;40342;52.998;5.862;2022-08-03T15:16:12;13.07;;;4.10;;
54430;SDS011;40342;52.998;5.862;2022-08-03T15:18:38;31.60;;;5.28;;
54430;SDS011;40342;52.998;5.862;2022-08-03T15:21:03;14.73;;;4.28;;
54430;SDS011;40342;52.998;5.862;2022-08-03T15:23:30;21.00;;;6.07;;
54430;SDS011;40342;52.998;5.862;2022-08-03T15:25:56;19.35;;;5.45;;
54430;SDS011;40342;52.998;5.862;2022-08-03T15:28:21;18.08;;;4.55;;